sensor_id;sensor_type;location;lat;lon;timestamp;P1;durP1;ratioP1;P2;durP2;ratioP2
74170;SDS011;62526;50.948;6.590;2023-10-19T00:00:44;11.77;;;8.30;;
74170;SDS011;62526;50.948;6.590;2023-10-19T00:03:12;12.53;;;8.63;;
74170;SDS011;62526;50.948;6.590;2023-10-19T00:05:39;11.53;;;8.50;;
74170;SDS011;62526;50.948;6.590;2023-10-19T00:08:09;10.37;;;8.43;;
74170;SDS011;62526;50.948;6.590;2023-10-19T00:10:41;11.30;;;8.07;;
74170;SDS011;62526;50.948;6.590;2023-10-19T00:13:06;12.97;;;8.20;;
74170;SDS011;62526;50.948;6.590;2023-10-19T00:15:34;11.13;;;8.17;;
74170;SDS011;62526;50.948;6.590;2023-10-19T00:18:00;12.37;;;8.97;;
74170;SDS011;62526;50.948;6.590;2023-10-19T00:20:36;11.67;;;8.50;;
74170;SDS011;62526;50.948;6.590;2023-10-19T00:23:03;10.43;;;7.83;;
74170;SDS011;62526;50.948;6.590;2023-10-19T00:25:31;11.53;;;8.73;;
74170;SDS011;62526;50.948;6.590;2023-10-19T00:27:58;12.43;;;9.17;;
74170;SDS011;62526;50.948;6.590;2023-10-19T00:30:25;13.77;;;8.37;;
74170;SDS011;62526;50.948;6.590;2023-10-19T00:32:53;11.23;;;7.97;;
74170;SDS011;62526;50.948;6.590;2023-10-19T00:35:19;10.33;;;8.20;;
74170;SDS011;62526;50.948;6.590;2023-10-19T00:37:58;10.97;;;7.63;;
74170;SDS011;62526;50.948;6.590;2023-10-19T00:40:25;13.13;;;8.40;;
74170;SDS011;62526;50.948;6.590;2023-10-19T00:43:06;10.67;;;8.00;;
74170;SDS011;62526;50.948;6.590;2023-10-19T00:45:34;9.93;;;7.10;;
74170;SDS011;62526;50.948;6.590;2023-10-19T00:48:00;10.30;;;7.53;;
74170;SDS011;62526;50.948;6.590;2023-10-19T00:50:28;13.67;;;7.40;;
74170;SDS011;62526;50.948;6.590;2023-10-19T00:52:54;11.23;;;7.57;;
74170;SDS011;62526;50.948;6.590;2023-10-19T00:55:22;11.13;;;7.67;;
74170;SDS011;62526;50.948;6.590;2023-10-19T00:57:50;9.93;;;7.53;;
74170;SDS011;62526;50.948;6.590;2023-10-19T01:00:17;11.00;;;7.95;;
74170;SDS011;62526;50.948;6.590;2023-10-19T01:02:47;11.63;;;8.07;;
74170;SDS011;62526;50.948;6.590;2023-10-19T01:05:14;9.13;;;8.07;;
74170;SDS011;62526;50.948;6.590;2023-10-19T01:07:42;15.50;;;7.13;;
74170;SDS011;62526;50.948;6.590;2023-10-19T01:10:09;10.03;;;7.10;;
74170;SDS011;62526;50.948;6.590;2023-10-19T01:12:40;10.23;;;7.50;;
74170;SDS011;62526;50.948;6.590;2023-10-19T01:15:09;14.37;;;8.53;;
74170;SDS011;62526;50.948;6.590;2023-10-19T01:17:41;11.57;;;7.57;;
74170;SDS011;62526;50.948;6.590;2023-10-19T01:20:09;10.87;;;7.73;;
74170;SDS011;62526;50.948;6.590;2023-10-19T01:22:46;10.80;;;7.90;;
74170;SDS011;62526;50.948;6.590;2023-10-19T01:25:09;10.53;;;7.70;;
74170;SDS011;62526;50.948;6.590;2023-10-19T01:27:36;13.10;;;8.07;;
74170;SDS011;62526;50.948;6.590;2023-10-19T01:30:02;12.40;;;8.23;;
74170;SDS011;62526;50.948;6.590;2023-10-19T01:32:30;10.97;;;7.97;;
74170;SDS011;62526;50.948;6.590;2023-10-19T01:34:57;9.80;;;8.20;;
74170;SDS011;62526;50.948;6.590;2023-10-19T01:37:24;11.93;;;8.97;;
74170;SDS011;62526;50.948;6.590;2023-10-19T01:39:51;12.57;;;8.70;;
74170;SDS011;62526;50.948;6.590;2023-10-19T01:42:18;12.80;;;8.63;;
74170;SDS011;62526;50.948;6.590;2023-10-19T01:44:45;10.23;;;8.30;;
74170;SDS011;62526;50.948;6.590;2023-10-19T01:47:11;11.07;;;8.87;;
74170;SDS011;62526;50.948;6.590;2023-10-19T01:49:38;18.00;;;9.20;;
74170;SDS011;62526;50.948;6.590;2023-10-19T01:52:05;10.90;;;8.83;;
74170;SDS011;62526;50.948;6.590;2023-10-19T01:54:32;12.93;;;9.50;;
74170;SDS011;62526;50.948;6.590;2023-10-19T01:56:59;11.17;;;8.87;;
74170;SDS011;62526;50.948;6.590;2023-10-19T01:59:27;13.83;;;9.13;;
74170;SDS011;62526;50.948;6.590;2023-10-19T02:01:54;11.50;;;8.53;;
74170;SDS011;62526;50.948;6.590;2023-10-19T02:04:20;12.90;;;8.87;;
74170;SDS011;62526;50.948;6.590;2023-10-19T02:06:48;11.60;;;9.13;;
74170;SDS011;62526;50.948;6.590;2023-10-19T02:09:15;12.60;;;9.40;;
74170;SDS011;62526;50.948;6.590;2023-10-19T02:11:49;10.93;;;8.10;;
74170;SDS011;62526;50.948;6.590;2023-10-19T02:14:16;12.67;;;9.37;;
74170;SDS011;62526;50.948;6.590;2023-10-19T02:16:45;12.43;;;9.13;;
74170;SDS011;62526;50.948;6.590;2023-10-19T02:19:11;9.80;;;8.03;;
74170;SDS011;62526;50.948;6.590;2023-10-19T02:21:37;11.67;;;9.00;;
74170;SDS011;62526;50.948;6.590;2023-10-19T02:24:07;11.90;;;8.50;;
74170;SDS011;62526;50.948;6.590;2023-10-19T02:26:34;13.97;;;9.20;;
74170;SDS011;62526;50.948;6.590;2023-10-19T02:29:01;14.10;;;8.63;;
74170;SDS011;62526;50.948;6.590;2023-10-19T02:31:28;12.17;;;9.00;;
74170;SDS011;62526;50.948;6.590;2023-10-19T02:33:54;13.13;;;8.97;;
74170;SDS011;62526;50.948;6.590;2023-10-19T02:36:26;16.00;;;8.57;;
74170;SDS011;62526;50.948;6.590;2023-10-19T02:38:57;9.67;;;8.30;;
74170;SDS011;62526;50.948;6.590;2023-10-19T02:41:25;12.97;;;8.70;;
74170;SDS011;62526;50.948;6.590;2023-10-19T02:43:51;12.10;;;8.73;;
74170;SDS011;62526;50.948;6.590;2023-10-19T02:46:19;10.80;;;8.07;;
74170;SDS011;62526;50.948;6.590;2023-10-19T02:48:47;11.33;;;8.53;;
74170;SDS011;62526;50.948;6.590;2023-10-19T02:51:14;12.77;;;9.37;;
74170;SDS011;62526;50.948;6.590;2023-10-19T02:53:41;13.93;;;8.80;;
74170;SDS011;62526;50.948;6.590;2023-10-19T02:56:13;12.20;;;8.80;;
74170;SDS011;62526;50.948;6.590;2023-10-19T02:58:43;11.30;;;9.20;;
74170;SDS011;62526;50.948;6.590;2023-10-19T03:01:13;12.63;;;8.90;;
74170;SDS011;62526;50.948;6.590;2023-10-19T03:03:40;11.40;;;8.50;;
74170;SDS011;62526;50.948;6.590;2023-10-19T03:06:07;13.73;;;8.77;;
74170;SDS011;62526;50.948;6.590;2023-10-19T03:08:35;13.10;;;9.13;;
74170;SDS011;62526;50.948;6.590;2023-10-19T03:11:01;12.77;;;8.63;;
74170;SDS011;62526;50.948;6.590;2023-10-19T03:13:30;12.90;;;8.83;;
74170;SDS011;62526;50.948;6.590;2023-10-19T03:15:59;13.27;;;8.53;;
74170;SDS011;62526;50.948;6.590;2023-10-19T03:18:29;11.13;;;8.33;;
74170;SDS011;62526;50.948;6.590;2023-10-19T03:20:56;11.00;;;7.80;;
74170;SDS011;62526;50.948;6.590;2023-10-19T03:23:23;11.03;;;7.37;;
74170;SDS011;62526;50.948;6.590;2023-10-19T03:25:53;9.87;;;7.93;;
74170;SDS011;62526;50.948;6.590;2023-10-19T03:28:34;11.03;;;7.60;;
74170;SDS011;62526;50.948;6.590;2023-10-19T03:31:01;11.37;;;8.13;;
74170;SDS011;62526;50.948;6.590;2023-10-19T03:33:28;11.17;;;8.07;;
74170;SDS011;62526;50.948;6.590;2023-10-19T03:35:54;12.10;;;7.97;;
74170;SDS011;62526;50.948;6.590;2023-10-19T03:38:22;12.47;;;7.30;;
74170;SDS011;62526;50.948;6.590;2023-10-19T03:40:49;10.90;;;8.00;;
74170;SDS011;62526;50.948;6.590;2023-10-19T03:43:19;11.27;;;7.80;;
74170;SDS011;62526;50.948;6.590;2023-10-19T03:45:48;9.50;;;7.80;;
74170;SDS011;62526;50.948;6.590;2023-10-19T03:48:19;11.00;;;6.43;;
74170;SDS011;62526;50.948;6.590;2023-10-19T03:50:50;8.57;;;6.70;;
74170;SDS011;62526;50.948;6.590;2023-10-19T03:53:18;11.43;;;7.60;;
74170;SDS011;62526;50.948;6.590;2023-10-19T03:55:45;11.87;;;7.50;;
74170;SDS011;62526;50.948;6.590;2023-10-19T03:58:12;10.97;;;7.30;;
74170;SDS011;62526;50.948;6.590;2023-10-19T04:00:39;10.33;;;7.43;;
74170;SDS011;62526;50.948;6.590;2023-10-19T04:03:06;11.37;;;8.27;;
74170;SDS011;62526;50.948;6.590;2023-10-19T04:05:33;13.17;;;8.60;;
74170;SDS011;62526;50.948;6.590;2023-10-19T04:08:00;11.23;;;8.83;;
74170;SDS011;62526;50.948;6.590;2023-10-19T04:10:27;13.37;;;9.20;;
74170;SDS011;62526;50.948;6.590;2023-10-19T04:12:56;12.70;;;8.30;;
74170;SDS011;62526;50.948;6.590;2023-10-19T04:15:23;13.47;;;8.87;;
74170;SDS011;62526;50.948;6.590;2023-10-19T04:17:50;14.87;;;8.97;;
74170;SDS011;62526;50.948;6.590;2023-10-19T04:20:19;12.80;;;8.93;;
74170;SDS011;62526;50.948;6.590;2023-10-19T04:23:01;12.90;;;8.50;;
74170;SDS011;62526;50.948;6.590;2023-10-19T04:25:32;13.00;;;8.97;;
74170;SDS011;62526;50.948;6.590;2023-10-19T04:27:59;11.47;;;8.93;;
74170;SDS011;62526;50.948;6.590;2023-10-19T04:30:25;15.87;;;9.30;;
74170;SDS011;62526;50.948;6.590;2023-10-19T04:32:52;13.80;;;8.70;;
74170;SDS011;62526;50.948;6.590;2023-10-19T04:35:19;16.90;;;9.10;;
74170;SDS011;62526;50.948;6.590;2023-10-19T04:37:49;13.17;;;8.33;;
74170;SDS011;62526;50.948;6.590;2023-10-19T04:40:16;12.07;;;8.27;;
74170;SDS011;62526;50.948;6.590;2023-10-19T04:42:43;13.77;;;8.67;;
74170;SDS011;62526;50.948;6.590;2023-10-19T04:45:10;11.17;;;8.30;;
74170;SDS011;62526;50.948;6.590;2023-10-19T04:47:37;11.10;;;8.07;;
74170;SDS011;62526;50.948;6.590;2023-10-19T04:50:04;11.53;;;8.47;;
74170;SDS011;62526;50.948;6.590;2023-10-19T04:52:32;12.77;;;8.40;;
74170;SDS011;62526;50.948;6.590;2023-10-19T04:54:58;12.43;;;9.03;;
74170;SDS011;62526;50.948;6.590;2023-10-19T04:57:27;12.57;;;8.10;;
74170;SDS011;62526;50.948;6.590;2023-10-19T04:59:54;11.00;;;7.97;;
74170;SDS011;62526;50.948;6.590;2023-10-19T05:02:21;10.70;;;7.43;;
74170;SDS011;62526;50.948;6.590;2023-10-19T05:04:49;10.90;;;7.50;;
74170;SDS011;62526;50.948;6.590;2023-10-19T05:07:15;11.73;;;7.90;;
74170;SDS011;62526;50.948;6.590;2023-10-19T05:09:43;12.03;;;8.33;;
74170;SDS011;62526;50.948;6.590;2023-10-19T05:12:10;10.43;;;8.30;;
74170;SDS011;62526;50.948;6.590;2023-10-19T05:14:38;11.57;;;7.90;;
74170;SDS011;62526;50.948;6.590;2023-10-19T05:17:05;14.90;;;8.37;;
74170;SDS011;62526;50.948;6.590;2023-10-19T05:19:32;10.67;;;7.50;;
74170;SDS011;62526;50.948;6.590;2023-10-19T05:21:59;10.03;;;7.53;;
74170;SDS011;62526;50.948;6.590;2023-10-19T05:24:26;8.37;;;6.57;;
74170;SDS011;62526;50.948;6.590;2023-10-19T05:26:54;13.00;;;7.10;;
74170;SDS011;62526;50.948;6.590;2023-10-19T05:29:21;9.90;;;6.63;;
74170;SDS011;62526;50.948;6.590;2023-10-19T05:31:50;10.27;;;6.77;;
74170;SDS011;62526;50.948;6.590;2023-10-19T05:34:16;10.53;;;6.33;;
74170;SDS011;62526;50.948;6.590;2023-10-19T05:36:44;9.80;;;5.80;;
74170;SDS011;62526;50.948;6.590;2023-10-19T05:39:11;6.47;;;5.27;;
74170;SDS011;62526;50.948;6.590;2023-10-19T05:41:38;14.63;;;5.80;;
74170;SDS011;62526;50.948;6.590;2023-10-19T05:44:05;6.83;;;5.30;;
74170;SDS011;62526;50.948;6.590;2023-10-19T05:46:32;10.23;;;5.27;;
74170;SDS011;62526;50.948;6.590;2023-10-19T05:48:59;6.20;;;4.87;;
74170;SDS011;62526;50.948;6.590;2023-10-19T05:54:03;9.13;;;4.70;;
74170;SDS011;62526;50.948;6.590;2023-10-19T05:56:31;5.97;;;5.20;;
74170;SDS011;62526;50.948;6.590;2023-10-19T05:58:57;12.20;;;4.90;;
74170;SDS011;62526;50.948;6.590;2023-10-19T06:01:24;8.77;;;5.30;;
74170;SDS011;62526;50.948;6.590;2023-10-19T06:03:51;5.73;;;4.97;;
74170;SDS011;62526;50.948;6.590;2023-10-19T06:06:19;11.83;;;5.00;;
74170;SDS011;62526;50.948;6.590;2023-10-19T06:08:46;11.10;;;5.07;;
74170;SDS011;62526;50.948;6.590;2023-10-19T06:11:13;8.97;;;5.13;;
74170;SDS011;62526;50.948;6.590;2023-10-19T06:13:40;6.27;;;5.10;;
74170;SDS011;62526;50.948;6.590;2023-10-19T06:16:07;6.67;;;5.10;;
74170;SDS011;62526;50.948;6.590;2023-10-19T06:18:34;9.30;;;5.03;;
74170;SDS011;62526;50.948;6.590;2023-10-19T06:21:01;9.37;;;5.27;;
74170;SDS011;62526;50.948;6.590;2023-10-19T06:23:28;10.30;;;5.03;;
74170;SDS011;62526;50.948;6.590;2023-10-19T06:25:55;7.22;;;5.45;;
74170;SDS011;62526;50.948;6.590;2023-10-19T06:28:22;8.80;;;6.23;;
74170;SDS011;62526;50.948;6.590;2023-10-19T06:30:50;9.20;;;6.40;;
74170;SDS011;62526;50.948;6.590;2023-10-19T06:33:16;11.17;;;5.50;;
74170;SDS011;62526;50.948;6.590;2023-10-19T06:35:43;8.77;;;5.77;;
74170;SDS011;62526;50.948;6.590;2023-10-19T06:38:10;12.43;;;6.03;;
74170;SDS011;62526;50.948;6.590;2023-10-19T06:40:37;9.87;;;5.67;;
74170;SDS011;62526;50.948;6.590;2023-10-19T06:43:04;12.63;;;6.62;;
74170;SDS011;62526;50.948;6.590;2023-10-19T06:45:31;9.85;;;5.70;;
74170;SDS011;62526;50.948;6.590;2023-10-19T06:47:58;11.47;;;9.90;;
74170;SDS011;62526;50.948;6.590;2023-10-19T06:50:26;10.43;;;6.80;;
74170;SDS011;62526;50.948;6.590;2023-10-19T06:52:53;10.97;;;6.93;;
74170;SDS011;62526;50.948;6.590;2023-10-19T06:55:21;9.43;;;6.83;;
74170;SDS011;62526;50.948;6.590;2023-10-19T06:57:51;10.30;;;6.43;;
74170;SDS011;62526;50.948;6.590;2023-10-19T07:00:18;11.97;;;8.13;;
74170;SDS011;62526;50.948;6.590;2023-10-19T07:02:46;8.13;;;6.07;;
74170;SDS011;62526;50.948;6.590;2023-10-19T07:05:13;10.33;;;6.23;;
74170;SDS011;62526;50.948;6.590;2023-10-19T07:07:40;14.00;;;7.57;;
74170;SDS011;62526;50.948;6.590;2023-10-19T07:10:08;11.27;;;6.23;;
74170;SDS011;62526;50.948;6.590;2023-10-19T07:12:36;11.17;;;6.73;;
74170;SDS011;62526;50.948;6.590;2023-10-19T07:15:03;15.63;;;10.23;;
74170;SDS011;62526;50.948;6.590;2023-10-19T07:17:34;16.03;;;6.67;;
74170;SDS011;62526;50.948;6.590;2023-10-19T07:20:01;15.80;;;6.90;;
74170;SDS011;62526;50.948;6.590;2023-10-19T07:22:30;11.93;;;7.40;;
74170;SDS011;62526;50.948;6.590;2023-10-19T07:24:57;10.33;;;6.27;;
74170;SDS011;62526;50.948;6.590;2023-10-19T07:27:24;10.40;;;6.63;;
74170;SDS011;62526;50.948;6.590;2023-10-19T07:29:51;13.57;;;8.23;;
74170;SDS011;62526;50.948;6.590;2023-10-19T07:32:19;10.83;;;6.43;;
74170;SDS011;62526;50.948;6.590;2023-10-19T07:34:47;13.63;;;7.40;;
74170;SDS011;62526;50.948;6.590;2023-10-19T07:37:14;11.73;;;6.83;;
74170;SDS011;62526;50.948;6.590;2023-10-19T07:39:45;13.57;;;7.10;;
74170;SDS011;62526;50.948;6.590;2023-10-19T07:42:12;12.27;;;7.50;;
74170;SDS011;62526;50.948;6.590;2023-10-19T07:44:39;12.07;;;6.43;;
74170;SDS011;62526;50.948;6.590;2023-10-19T07:47:07;9.80;;;7.13;;
74170;SDS011;62526;50.948;6.590;2023-10-19T07:49:33;12.40;;;7.28;;
74170;SDS011;62526;50.948;6.590;2023-10-19T07:52:00;10.77;;;7.07;;
74170;SDS011;62526;50.948;6.590;2023-10-19T07:54:28;11.80;;;6.40;;
74170;SDS011;62526;50.948;6.590;2023-10-19T07:56:54;13.65;;;8.82;;
74170;SDS011;62526;50.948;6.590;2023-10-19T07:59:22;9.13;;;5.80;;
74170;SDS011;62526;50.948;6.590;2023-10-19T08:01:48;11.00;;;6.37;;
74170;SDS011;62526;50.948;6.590;2023-10-19T08:04:16;9.07;;;6.87;;
74170;SDS011;62526;50.948;6.590;2023-10-19T08:06:43;7.20;;;5.78;;
74170;SDS011;62526;50.948;6.590;2023-10-19T08:09:10;14.25;;;6.50;;
74170;SDS011;62526;50.948;6.590;2023-10-19T08:11:38;11.15;;;5.62;;
74170;SDS011;62526;50.948;6.590;2023-10-19T08:14:05;8.70;;;5.35;;
74170;SDS011;62526;50.948;6.590;2023-10-19T08:16:32;14.25;;;6.15;;
74170;SDS011;62526;50.948;6.590;2023-10-19T08:18:59;9.10;;;5.68;;
74170;SDS011;62526;50.948;6.590;2023-10-19T08:21:26;7.68;;;5.43;;
74170;SDS011;62526;50.948;6.590;2023-10-19T08:23:54;11.45;;;5.65;;
74170;SDS011;62526;50.948;6.590;2023-10-19T08:26:20;9.05;;;4.90;;
74170;SDS011;62526;50.948;6.590;2023-10-19T08:28:48;9.00;;;5.87;;
74170;SDS011;62526;50.948;6.590;2023-10-19T08:31:15;10.98;;;5.85;;
74170;SDS011;62526;50.948;6.590;2023-10-19T08:33:42;8.98;;;5.62;;
74170;SDS011;62526;50.948;6.590;2023-10-19T08:36:15;9.32;;;5.40;;
74170;SDS011;62526;50.948;6.590;2023-10-19T08:38:38;12.27;;;5.12;;
74170;SDS011;62526;50.948;6.590;2023-10-19T08:41:05;8.77;;;5.60;;
74170;SDS011;62526;50.948;6.590;2023-10-19T08:43:32;7.50;;;5.78;;
74170;SDS011;62526;50.948;6.590;2023-10-19T08:46:00;11.45;;;6.03;;
74170;SDS011;62526;50.948;6.590;2023-10-19T08:48:28;18.20;;;6.10;;
74170;SDS011;62526;50.948;6.590;2023-10-19T08:50:55;14.20;;;9.40;;
74170;SDS011;62526;50.948;6.590;2023-10-19T08:53:21;7.45;;;4.75;;
74170;SDS011;62526;50.948;6.590;2023-10-19T08:55:49;12.82;;;4.68;;
74170;SDS011;62526;50.948;6.590;2023-10-19T08:58:15;13.85;;;5.32;;
74170;SDS011;62526;50.948;6.590;2023-10-19T09:00:44;12.20;;;5.20;;
74170;SDS011;62526;50.948;6.590;2023-10-19T09:03:09;9.57;;;5.53;;
74170;SDS011;62526;50.948;6.590;2023-10-19T09:05:37;7.87;;;3.72;;
74170;SDS011;62526;50.948;6.590;2023-10-19T09:08:04;6.40;;;3.10;;
74170;SDS011;62526;50.948;6.590;2023-10-19T09:10:31;8.23;;;3.17;;
74170;SDS011;62526;50.948;6.590;2023-10-19T09:13:00;9.93;;;3.47;;
74170;SDS011;62526;50.948;6.590;2023-10-19T09:15:26;7.70;;;3.22;;
74170;SDS011;62526;50.948;6.590;2023-10-19T09:17:53;7.53;;;2.90;;
74170;SDS011;62526;50.948;6.590;2023-10-19T09:20:21;9.25;;;3.40;;
74170;SDS011;62526;50.948;6.590;2023-10-19T09:22:55;6.32;;;2.53;;
74170;SDS011;62526;50.948;6.590;2023-10-19T09:25:21;9.88;;;2.97;;
74170;SDS011;62526;50.948;6.590;2023-10-19T09:27:49;9.38;;;3.47;;
74170;SDS011;62526;50.948;6.590;2023-10-19T09:30:15;4.93;;;3.12;;
74170;SDS011;62526;50.948;6.590;2023-10-19T09:32:43;8.30;;;2.70;;
74170;SDS011;62526;50.948;6.590;2023-10-19T09:35:10;8.73;;;2.20;;
74170;SDS011;62526;50.948;6.590;2023-10-19T09:37:37;11.07;;;3.58;;
74170;SDS011;62526;50.948;6.590;2023-10-19T09:40:04;6.62;;;2.58;;
74170;SDS011;62526;50.948;6.590;2023-10-19T09:42:32;8.18;;;1.98;;
74170;SDS011;62526;50.948;6.590;2023-10-19T09:44:59;5.62;;;1.92;;
74170;SDS011;62526;50.948;6.590;2023-10-19T09:47:29;9.48;;;2.40;;
74170;SDS011;62526;50.948;6.590;2023-10-19T09:49:53;9.75;;;2.33;;
74170;SDS011;62526;50.948;6.590;2023-10-19T09:52:21;9.48;;;2.35;;
74170;SDS011;62526;50.948;6.590;2023-10-19T09:54:51;6.70;;;2.30;;
74170;SDS011;62526;50.948;6.590;2023-10-19T09:57:30;10.18;;;2.00;;
74170;SDS011;62526;50.948;6.590;2023-10-19T09:59:56;6.55;;;1.98;;
74170;SDS011;62526;50.948;6.590;2023-10-19T10:02:22;13.02;;;2.50;;
74170;SDS011;62526;50.948;6.590;2023-10-19T10:04:49;6.87;;;1.98;;
74170;SDS011;62526;50.948;6.590;2023-10-19T10:07:16;4.80;;;1.92;;
74170;SDS011;62526;50.948;6.590;2023-10-19T10:09:43;11.85;;;2.20;;
74170;SDS011;62526;50.948;6.590;2023-10-19T10:15:01;8.07;;;2.60;;
74170;SDS011;62526;50.948;6.590;2023-10-19T10:17:35;9.13;;;4.35;;
74170;SDS011;62526;50.948;6.590;2023-10-19T10:25:30;6.20;;;2.20;;
74170;SDS011;62526;50.948;6.590;2023-10-19T10:27:57;21.20;;;14.18;;
74170;SDS011;62526;50.948;6.590;2023-10-19T10:30:24;31.55;;;20.37;;
74170;SDS011;62526;50.948;6.590;2023-10-19T10:32:51;15.20;;;8.05;;
74170;SDS011;62526;50.948;6.590;2023-10-19T10:37:58;22.02;;;5.03;;
74170;SDS011;62526;50.948;6.590;2023-10-19T10:40:24;11.70;;;3.03;;
74170;SDS011;62526;50.948;6.590;2023-10-19T10:43:04;10.02;;;2.95;;
74170;SDS011;62526;50.948;6.590;2023-10-19T10:45:19;7.40;;;2.35;;
74170;SDS011;62526;50.948;6.590;2023-10-19T10:47:46;11.30;;;3.10;;
74170;SDS011;62526;50.948;6.590;2023-10-19T10:50:12;9.02;;;2.45;;
74170;SDS011;62526;50.948;6.590;2023-10-19T10:52:39;8.13;;;3.05;;
74170;SDS011;62526;50.948;6.590;2023-10-19T10:55:08;9.70;;;2.78;;
74170;SDS011;62526;50.948;6.590;2023-10-19T10:57:34;6.93;;;3.10;;
74170;SDS011;62526;50.948;6.590;2023-10-19T11:00:02;11.70;;;3.03;;
74170;SDS011;62526;50.948;6.590;2023-10-19T11:02:29;13.57;;;2.55;;
74170;SDS011;62526;50.948;6.590;2023-10-19T11:04:56;11.60;;;4.75;;
74170;SDS011;62526;50.948;6.590;2023-10-19T11:07:23;7.20;;;2.55;;
74170;SDS011;62526;50.948;6.590;2023-10-19T11:09:50;9.63;;;1.95;;
74170;SDS011;62526;50.948;6.590;2023-10-19T11:12:16;9.90;;;2.80;;
74170;SDS011;62526;50.948;6.590;2023-10-19T11:17:20;7.68;;;2.40;;
74170;SDS011;62526;50.948;6.590;2023-10-19T11:19:50;5.40;;;2.30;;
74170;SDS011;62526;50.948;6.590;2023-10-19T11:22:17;7.75;;;2.20;;
74170;SDS011;62526;50.948;6.590;2023-10-19T11:24:44;8.75;;;2.12;;
74170;SDS011;62526;50.948;6.590;2023-10-19T11:27:11;9.20;;;2.35;;
74170;SDS011;62526;50.948;6.590;2023-10-19T11:29:38;8.90;;;2.53;;
74170;SDS011;62526;50.948;6.590;2023-10-19T11:32:07;10.60;;;2.15;;
74170;SDS011;62526;50.948;6.590;2023-10-19T11:34:34;8.52;;;2.20;;
74170;SDS011;62526;50.948;6.590;2023-10-19T11:37:01;9.25;;;2.45;;
74170;SDS011;62526;50.948;6.590;2023-10-19T11:39:28;11.90;;;2.40;;
74170;SDS011;62526;50.948;6.590;2023-10-19T11:41:55;8.68;;;2.20;;
74170;SDS011;62526;50.948;6.590;2023-10-19T11:44:22;8.38;;;2.30;;
74170;SDS011;62526;50.948;6.590;2023-10-19T11:46:49;4.93;;;2.15;;
74170;SDS011;62526;50.948;6.590;2023-10-19T11:49:15;8.57;;;2.37;;
74170;SDS011;62526;50.948;6.590;2023-10-19T11:51:43;9.00;;;2.40;;
74170;SDS011;62526;50.948;6.590;2023-10-19T11:54:12;11.73;;;2.40;;
74170;SDS011;62526;50.948;6.590;2023-10-19T11:56:40;6.78;;;2.17;;
74170;SDS011;62526;50.948;6.590;2023-10-19T11:59:07;12.30;;;2.58;;
74170;SDS011;62526;50.948;6.590;2023-10-19T12:01:34;9.00;;;2.20;;
74170;SDS011;62526;50.948;6.590;2023-10-19T12:04:01;15.77;;;2.40;;
74170;SDS011;62526;50.948;6.590;2023-10-19T12:06:29;10.68;;;3.03;;
74170;SDS011;62526;50.948;6.590;2023-10-19T12:08:57;14.18;;;2.72;;
74170;SDS011;62526;50.948;6.590;2023-10-19T12:11:23;9.38;;;2.53;;
74170;SDS011;62526;50.948;6.590;2023-10-19T12:13:51;6.87;;;2.37;;
74170;SDS011;62526;50.948;6.590;2023-10-19T12:16:17;12.65;;;2.75;;
74170;SDS011;62526;50.948;6.590;2023-10-19T12:18:46;6.62;;;2.30;;
74170;SDS011;62526;50.948;6.590;2023-10-19T12:21:12;9.73;;;2.55;;
74170;SDS011;62526;50.948;6.590;2023-10-19T12:23:40;9.63;;;2.22;;
74170;SDS011;62526;50.948;6.590;2023-10-19T12:26:07;11.12;;;2.62;;
74170;SDS011;62526;50.948;6.590;2023-10-19T12:28:38;6.20;;;2.62;;
74170;SDS011;62526;50.948;6.590;2023-10-19T12:31:06;9.00;;;2.83;;
74170;SDS011;62526;50.948;6.590;2023-10-19T12:33:32;6.50;;;2.28;;
74170;SDS011;62526;50.948;6.590;2023-10-19T12:36:00;6.93;;;1.92;;
74170;SDS011;62526;50.948;6.590;2023-10-19T12:38:27;4.93;;;1.95;;
74170;SDS011;62526;50.948;6.590;2023-10-19T12:40:54;10.48;;;2.20;;
74170;SDS011;62526;50.948;6.590;2023-10-19T12:43:21;11.48;;;2.20;;
74170;SDS011;62526;50.948;6.590;2023-10-19T12:45:49;9.23;;;2.12;;
74170;SDS011;62526;50.948;6.590;2023-10-19T12:48:17;16.33;;;2.50;;
74170;SDS011;62526;50.948;6.590;2023-10-19T12:50:44;9.95;;;2.42;;
74170;SDS011;62526;50.948;6.590;2023-10-19T12:53:12;5.95;;;2.25;;
74170;SDS011;62526;50.948;6.590;2023-10-19T12:55:38;7.20;;;2.10;;
74170;SDS011;62526;50.948;6.590;2023-10-19T12:58:06;8.10;;;2.65;;
74170;SDS011;62526;50.948;6.590;2023-10-19T13:00:33;8.20;;;2.12;;
74170;SDS011;62526;50.948;6.590;2023-10-19T13:03:03;7.65;;;2.53;;
74170;SDS011;62526;50.948;6.590;2023-10-19T13:05:32;9.07;;;2.28;;
74170;SDS011;62526;50.948;6.590;2023-10-19T13:08:00;10.50;;;2.30;;
74170;SDS011;62526;50.948;6.590;2023-10-19T13:10:28;9.32;;;2.53;;
74170;SDS011;62526;50.948;6.590;2023-10-19T13:12:55;14.20;;;2.50;;
74170;SDS011;62526;50.948;6.590;2023-10-19T13:15:21;14.35;;;2.95;;
74170;SDS011;62526;50.948;6.590;2023-10-19T13:17:49;10.05;;;2.75;;
74170;SDS011;62526;50.948;6.590;2023-10-19T13:20:15;9.30;;;2.10;;
74170;SDS011;62526;50.948;6.590;2023-10-19T13:22:43;9.43;;;2.80;;
74170;SDS011;62526;50.948;6.590;2023-10-19T13:25:09;13.68;;;2.90;;
74170;SDS011;62526;50.948;6.590;2023-10-19T13:27:39;6.28;;;2.50;;
74170;SDS011;62526;50.948;6.590;2023-10-19T13:30:06;8.77;;;3.00;;
74170;SDS011;62526;50.948;6.590;2023-10-19T13:32:34;11.15;;;3.08;;
74170;SDS011;62526;50.948;6.590;2023-10-19T13:35:01;9.05;;;3.12;;
74170;SDS011;62526;50.948;6.590;2023-10-19T13:37:28;8.70;;;2.33;;
74170;SDS011;62526;50.948;6.590;2023-10-19T13:39:57;6.03;;;2.30;;
74170;SDS011;62526;50.948;6.590;2023-10-19T13:42:24;9.98;;;2.20;;
74170;SDS011;62526;50.948;6.590;2023-10-19T13:44:50;10.40;;;3.15;;
74170;SDS011;62526;50.948;6.590;2023-10-19T13:47:18;11.15;;;3.20;;
74170;SDS011;62526;50.948;6.590;2023-10-19T13:49:45;13.82;;;7.37;;
74170;SDS011;62526;50.948;6.590;2023-10-19T13:52:12;9.18;;;3.00;;
74170;SDS011;62526;50.948;6.590;2023-10-19T13:54:40;9.55;;;2.50;;
74170;SDS011;62526;50.948;6.590;2023-10-19T13:57:07;9.18;;;2.55;;
74170;SDS011;62526;50.948;6.590;2023-10-19T13:59:33;10.93;;;3.80;;
74170;SDS011;62526;50.948;6.590;2023-10-19T14:02:01;10.93;;;2.80;;
74170;SDS011;62526;50.948;6.590;2023-10-19T14:04:28;11.80;;;4.05;;
74170;SDS011;62526;50.948;6.590;2023-10-19T14:06:55;13.23;;;4.50;;
74170;SDS011;62526;50.948;6.590;2023-10-19T14:09:23;5.53;;;2.70;;
74170;SDS011;62526;50.948;6.590;2023-10-19T14:11:50;7.22;;;2.60;;
74170;SDS011;62526;50.948;6.590;2023-10-19T14:14:17;9.00;;;3.10;;
74170;SDS011;62526;50.948;6.590;2023-10-19T14:16:44;5.75;;;2.92;;
74170;SDS011;62526;50.948;6.590;2023-10-19T14:19:11;9.75;;;3.72;;
74170;SDS011;62526;50.948;6.590;2023-10-19T14:21:38;11.93;;;4.57;;
74170;SDS011;62526;50.948;6.590;2023-10-19T14:24:05;11.88;;;4.50;;
74170;SDS011;62526;50.948;6.590;2023-10-19T14:26:32;11.98;;;5.50;;
74170;SDS011;62526;50.948;6.590;2023-10-19T14:28:59;8.43;;;4.25;;
74170;SDS011;62526;50.948;6.590;2023-10-19T14:31:26;12.30;;;3.42;;
74170;SDS011;62526;50.948;6.590;2023-10-19T14:33:53;15.32;;;3.08;;
74170;SDS011;62526;50.948;6.590;2023-10-19T14:36:21;8.48;;;3.55;;
74170;SDS011;62526;50.948;6.590;2023-10-19T14:38:48;9.73;;;3.65;;
74170;SDS011;62526;50.948;6.590;2023-10-19T14:41:14;14.10;;;5.03;;
74170;SDS011;62526;50.948;6.590;2023-10-19T14:43:41;11.60;;;3.85;;
74170;SDS011;62526;50.948;6.590;2023-10-19T14:46:08;11.38;;;4.00;;
74170;SDS011;62526;50.948;6.590;2023-10-19T14:48:35;10.20;;;3.42;;
74170;SDS011;62526;50.948;6.590;2023-10-19T14:51:03;6.03;;;3.22;;
74170;SDS011;62526;50.948;6.590;2023-10-19T14:53:30;7.18;;;4.40;;
74170;SDS011;62526;50.948;6.590;2023-10-19T14:55:57;8.60;;;3.80;;